Time;durP1;ratioP1;P1;durP2;ratioP2;P2;SDS_P1;SDS_P2;PMS_P1;PMS_P2;Temp;Humidity;BMP_temperature;BMP_pressure;BME280_temperature;BME280_humidity;BME280_pressure;Samples;Min_cycle;Max_cycle;Signal;HPM_P1;HPM_P2
2023/11/30 00:00:15;;;;;;;;;;;-1.20;99.90;;;;;;5038955;28;20178;-79
2023/11/30 00:02:41;;;;;;;0.80;0.80;;;-2.20;99.90;;;;;;5039218;28;20019;-76
2023/11/30 00:05:08;;;;;;;0.93;0.93;;;-2.20;99.90;;;;;;5035063;28;20080;-80
2023/11/30 00:07:34;;;;;;;0.90;0.90;;;-2.20;99.90;;;;;;5017426;28;20079;-78
2023/11/30 00:10:03;;;;;;;;;;;-2.20;99.90;;;;;;5037245;28;20049;-83
2023/11/30 00:12:28;;;;;;;0.90;0.90;;;-2.20;99.90;;;;;;5035164;28;19925;-82
2023/11/30 00:14:55;;;;;;;1.05;1.05;;;-2.10;99.90;;;;;;5036547;28;20535;-83
2023/11/30 00:17:22;;;;;;;1.70;1.60;;;-2.10;99.90;;;;;;5039567;28;20108;-82
2023/11/30 00:19:48;;;;;;;1.02;1.02;;;-2.10;99.90;;;;;;5042716;28;20073;-81
2023/11/30 00:22:16;;;;;;;0.80;0.80;;;-2.00;99.90;;;;;;5033696;28;20060;-83
2023/11/30 00:24:44;;;;;;;0.90;0.90;;;-2.10;99.90;;;;;;5045618;28;20053;-84
2023/11/30 00:27:10;;;;;;;0.80;0.80;;;-2.10;99.90;;;;;;5058092;28;20045;-83
2023/11/30 00:29:37;;;;;;;0.90;0.90;;;-2.20;99.90;;;;;;5022659;28;20501;-86
2023/11/30 00:32:03;;;;;;;0.85;0.85;;;-2.20;99.90;;;;;;5054597;28;20391;-84
2023/11/30 00:34:28;;;;;;;0.88;0.88;;;-2.20;99.90;;;;;;5018374;28;20045;-83
2023/11/30 00:36:55;;;;;;;;;;;-2.20;99.90;;;;;;5033798;28;20037;-83
2023/11/30 00:39:21;;;;;;;1.27;1.23;;;-2.20;99.90;;;;;;5053061;28;19923;-85
2023/11/30 00:41:46;;;;;;;;;;;-2.30;99.90;;;;;;5036378;28;20044;-82
2023/11/30 00:44:12;;;;;;;0.90;0.90;;;-2.30;99.90;;;;;;5028781;28;19921;-82
2023/11/30 00:46:39;;;;;;;;;;;-2.30;99.90;;;;;;5026364;28;20045;-85
2023/11/30 00:49:07;;;;;;;0.80;0.80;;;-2.40;99.90;;;;;;5048171;28;20360;-85
2023/11/30 00:51:34;;;;;;;0.85;0.85;;;-2.50;99.90;;;;;;5027756;28;20242;-83
2023/11/30 00:54:00;;;;;;;0.90;0.90;;;-2.60;99.90;;;;;;5035242;28;20051;-84
2023/11/30 00:56:25;;;;;;;0.80;0.80;;;-2.60;99.90;;;;;;5046568;28;20128;-81
2023/11/30 00:58:51;;;;;;;1.00;1.00;;;-2.70;99.90;;;;;;5048521;28;20454;-81
2023/11/30 01:01:17;;;;;;;;;;;-2.70;99.90;;;;;;5035630;28;20036;-85
2023/11/30 01:03:42;;;;;;;0.90;0.90;;;-2.70;99.90;;;;;;5050803;28;19921;-83
2023/11/30 01:06:08;;;;;;;;;;;-2.70;99.90;;;;;;5049278;28;20063;-84
2023/11/30 01:08:34;;;;;;;0.90;0.90;;;-2.70;99.90;;;;;;5047665;28;20255;-85
2023/11/30 01:11:03;;;;;;;0.90;0.90;;;-2.80;99.90;;;;;;5024044;28;20549;-84
2023/11/30 01:13:28;;;;;;;0.90;0.90;;;-2.80;99.90;;;;;;5038606;28;20107;-81
2023/11/30 01:15:54;;;;;;;1.33;1.25;;;-2.80;99.90;;;;;;5032147;28;20360;-80
2023/11/30 01:18:20;;;;;;;;;;;-2.80;99.90;;;;;;5054630;28;20073;-81
2023/11/30 01:20:45;;;;;;;1.67;1.58;;;-2.80;99.90;;;;;;5052206;28;20309;-83
2023/11/30 01:23:11;;;;;;;;;;;-2.70;99.90;;;;;;5045325;28;20551;-83
2023/11/30 01:25:36;;;;;;;0.80;0.80;;;-2.60;99.90;;;;;;5045852;28;20405;-82
2023/11/30 01:28:03;;;;;;;;;;;-2.50;99.90;;;;;;5023855;28;20395;-81
2023/11/30 01:30:29;;;;;;;1.83;1.73;;;-2.50;99.90;;;;;;5044223;28;20347;-81
2023/11/30 01:32:54;;;;;;;;;;;-1.90;99.90;;;;;;5029136;28;20098;-81
2023/11/30 01:35:20;;;;;;;0.80;0.80;;;-2.50;99.90;;;;;;5026683;28;20269;-81
2023/11/30 01:37:46;;;;;;;;;;;-2.50;99.90;;;;;;5039161;28;20068;-82
2023/11/30 01:40:11;;;;;;;0.85;0.85;;;-2.50;99.90;;;;;;5028317;28;20316;-84
2023/11/30 01:42:37;;;;;;;;;;;-2.50;99.90;;;;;;5040038;28;20222;-82
2023/11/30 01:45:03;;;;;;;0.80;0.80;;;-2.40;99.90;;;;;;5039995;28;19927;-82
2023/11/30 01:47:32;;;;;;;0.88;0.88;;;-2.40;99.90;;;;;;5025956;28;20033;-81
2023/11/30 01:50:00;;;;;;;0.80;0.80;;;-2.40;99.90;;;;;;5044182;28;20421;-81
2023/11/30 01:52:27;;;;;;;0.90;0.90;;;-2.40;99.90;;;;;;5028456;28;20040;-81
2023/11/30 01:54:53;;;;;;;0.82;0.82;;;-2.40;99.90;;;;;;5039456;28;20327;-81
2023/11/30 01:57:18;;;;;;;0.93;0.93;;;-2.40;99.90;;;;;;5029581;28;20049;-82
2023/11/30 01:59:46;;;;;;;0.80;0.80;;;-2.30;99.90;;;;;;5024367;28;20542;-82
2023/11/30 02:02:13;;;;;;;0.80;0.80;;;-2.30;99.90;;;;;;5039364;28;20367;-80
2023/11/30 02:04:42;;;;;;;1.00;1.00;;;-2.10;99.90;;;;;;5027889;28;20056;-81
2023/11/30 02:07:09;;;;;;;0.80;0.80;;;-2.30;99.90;;;;;;5045802;28;20047;-82
2023/11/30 02:09:35;;;;;;;0.80;0.80;;;-2.30;99.90;;;;;;5046681;28;20045;-80
2023/11/30 02:12:01;;;;;;;0.82;0.82;;;-2.20;99.90;;;;;;5041826;28;20099;-82
2023/11/30 02:14:26;;;;;;;0.82;0.82;;;-2.30;99.90;;;;;;5050991;28;20037;-81
2023/11/30 02:16:52;;;;;;;0.80;0.80;;;-2.30;99.90;;;;;;5052010;28;20040;-83
2023/11/30 02:19:18;;;;;;;0.80;0.80;;;-2.30;99.90;;;;;;5053018;28;20127;-81
2023/11/30 02:21:51;;;;;;;0.80;0.80;;;-2.30;99.90;;;;;;5028085;28;20057;-81
2023/11/30 02:24:17;;;;;;;1.10;1.10;;;-2.40;99.90;;;;;;5028363;28;20091;-82
2023/11/30 02:26:43;;;;;;;0.77;0.77;;;-2.40;99.90;;;;;;5024433;28;20045;-81
2023/11/30 02:29:08;;;;;;;1.50;1.45;;;-2.40;99.90;;;;;;5042374;28;20506;-81
2023/11/30 02:31:35;;;;;;;0.95;0.95;;;-2.40;99.90;;;;;;5044922;28;20067;-82
2023/11/30 02:34:01;;;;;;;2.00;1.90;;;-2.30;99.90;;;;;;5047823;28;20044;-82
2023/11/30 02:36:26;;;;;;;0.82;0.82;;;-2.50;99.90;;;;;;5049065;28;20099;-83
2023/11/30 02:38:52;;;;;;;0.80;0.80;;;-2.50;99.90;;;;;;5051073;28;20051;-82
2023/11/30 02:41:18;;;;;;;1.75;1.65;;;-2.50;99.90;;;;;;5041291;28;20498;-81
2023/11/30 02:43:43;;;;;;;;;;;-2.60;99.90;;;;;;5045816;28;20052;-82
2023/11/30 02:46:09;;;;;;;0.90;0.90;;;-2.60;99.90;;;;;;5018640;28;19921;-84
2023/11/30 02:48:37;;;;;;;0.80;0.80;;;-2.10;99.90;;;;;;5051649;28;20151;-83
2023/11/30 02:51:03;;;;;;;0.73;0.73;;;-2.50;99.90;;;;;;5043461;28;20041;-82
2023/11/30 02:53:28;;;;;;;0.90;0.90;;;-2.60;99.90;;;;;;5046034;28;20068;-82
2023/11/30 02:55:54;;;;;;;;;;;-2.60;99.90;;;;;;5040314;28;20053;-82
2023/11/30 02:58:21;;;;;;;1.00;1.00;;;-2.60;99.90;;;;;;5024739;28;19921;-83
2023/11/30 03:00:48;;;;;;;0.80;0.80;;;-2.60;99.90;;;;;;5046431;28;20376;-82
2023/11/30 03:03:14;;;;;;;0.80;0.80;;;-2.60;99.90;;;;;;5030286;28;20072;-81
2023/11/30 03:05:41;;;;;;;0.85;0.85;;;-2.60;99.90;;;;;;5043628;28;20049;-81
2023/11/30 03:08:07;;;;;;;1.00;1.00;;;-2.70;99.90;;;;;;5048536;28;20418;-81
2023/11/30 03:10:33;;;;;;;0.90;0.90;;;-2.70;99.90;;;;;;5041538;28;20041;-82
2023/11/30 03:13:00;;;;;;;;;;;-2.70;99.90;;;;;;5049420;28;20045;-82
2023/11/30 03:15:25;;;;;;;0.88;0.88;;;-2.70;99.90;;;;;;5050801;28;19928;-81
2023/11/30 03:17:51;;;;;;;0.80;0.80;;;-2.70;99.90;;;;;;5052741;28;20044;-82
2023/11/30 03:20:17;;;;;;;;;;;-2.70;99.90;;;;;;5050603;28;20060;-82
2023/11/30 03:22:42;;;;;;;0.80;0.80;;;-2.70;99.90;;;;;;5048849;28;20443;-80
2023/11/30 03:25:08;;;;;;;;;;;-2.00;99.90;;;;;;5030976;28;20584;-83
2023/11/30 03:27:34;;;;;;;0.90;0.90;;;-2.70;99.90;;;;;;5041232;28;20358;-82
2023/11/30 03:29:59;;;;;;;0.95;0.95;;;-2.70;99.90;;;;;;5013843;28;20049;-81
2023/11/30 03:32:25;;;;;;;0.90;0.90;;;-2.70;99.90;;;;;;5045967;28;20033;-81
2023/11/30 03:34:51;;;;;;;;;;;-2.80;99.90;;;;;;5037686;28;20033;-82
2023/11/30 03:37:16;;;;;;;0.80;0.80;;;-2.80;99.90;;;;;;5044051;28;19921;-82
2023/11/30 03:39:42;;;;;;;0.90;0.90;;;-2.80;99.90;;;;;;5012209;28;20037;-81
2023/11/30 03:42:08;;;;;;;0.80;0.80;;;-2.90;99.90;;;;;;5043456;28;20128;-80
2023/11/30 03:44:33;;;;;;;;;;;-2.80;99.90;;;;;;5010614;28;20076;-81
2023/11/30 03:46:59;;;;;;;0.80;0.80;;;-3.00;99.90;;;;;;5028567;28;19924;-83
2023/11/30 03:49:25;;;;;;;;;;;-3.00;99.90;;;;;;5046539;28;20048;-82
2023/11/30 03:51:51;;;;;;;1.60;1.50;;;-3.00;99.90;;;;;;5030036;28;20369;-83
2023/11/30 03:54:16;;;;;;;;;;;-3.10;99.90;;;;;;5050475;28;20447;-84
2023/11/30 03:56:42;;;;;;;0.77;0.77;;;-3.10;99.90;;;;;;5044120;28;20004;-83
2023/11/30 03:59:10;;;;;;;0.82;0.82;;;-3.20;99.90;;;;;;5032289;28;20049;-83
2023/11/30 04:01:36;;;;;;;1.85;1.75;;;-3.40;99.90;;;;;;5048407;28;20091;-81
2023/11/30 04:04:01;;;;;;;;;;;-3.30;99.90;;;;;;5045820;28;20402;-82
2023/11/30 04:06:27;;;;;;;0.80;0.80;;;-3.30;99.90;;;;;;5020454;28;19920;-83
2023/11/30 04:08:54;;;;;;;;;;;-3.30;99.90;;;;;;5052400;28;20098;-82
2023/11/30 04:11:19;;;;;;;0.90;0.90;;;-3.40;99.90;;;;;;5050463;28;19916;-84
2023/11/30 04:13:46;;;;;;;0.80;0.80;;;-3.40;99.90;;;;;;5023934;28;21089;-83
2023/11/30 04:16:16;;;;;;;0.80;0.80;;;-3.50;99.90;;;;;;5028572;28;20036;-84
2023/11/30 04:18:42;;;;;;;0.90;0.90;;;-3.50;99.90;;;;;;5043362;28;20049;-82
2023/11/30 04:21:08;;;;;;;;;;;-3.50;99.90;;;;;;5050264;28;20055;-83
2023/11/30 04:23:34;;;;;;;0.80;0.80;;;-3.50;99.90;;;;;;5053497;28;19925;-82
2023/11/30 04:26:00;;;;;;;0.90;0.90;;;-3.50;99.90;;;;;;5041548;28;20047;-82
2023/11/30 04:28:26;;;;;;;;;;;-3.60;99.90;;;;;;5031890;28;20120;-84
2023/11/30 04:30:53;;;;;;;0.90;0.90;;;-3.60;99.90;;;;;;5032293;28;20312;-86
2023/11/30 04:33:20;;;;;;;0.80;0.80;;;-3.70;99.90;;;;;;5020569;28;20048;-85
2023/11/30 04:35:46;;;;;;;0.90;0.90;;;-3.80;99.90;;;;;;5040642;28;20041;-82
2023/11/30 04:38:12;;;;;;;;;;;-3.90;99.90;;;;;;5030865;28;20079;-83
2023/11/30 04:40:37;;;;;;;1.00;1.00;;;-3.90;99.90;;;;;;5027377;28;19963;-81
2023/11/30 04:43:03;;;;;;;;;;;-4.00;99.90;;;;;;5017642;28;20344;-80
2023/11/30 04:45:29;;;;;;;0.90;0.90;;;-4.00;99.90;;;;;;5042441;28;20256;-81
2023/11/30 04:47:54;;;;;;;;;;;-4.00;99.90;;;;;;5023047;28;20049;-81
2023/11/30 04:50:20;;;;;;;0.90;0.90;;;-4.10;99.90;;;;;;5024631;28;20336;-83
2023/11/30 04:52:46;;;;;;;0.90;0.90;;;-3.90;99.90;;;;;;5043677;28;20129;-81
2023/11/30 04:55:11;;;;;;;;;;;-4.20;99.90;;;;;;5029219;28;20049;-81
2023/11/30 04:57:37;;;;;;;0.90;0.90;;;-4.20;99.90;;;;;;5041317;28;20007;-81
2023/11/30 05:00:05;;;;;;;;;;;-4.20;99.90;;;;;;5041973;28;20046;-81
2023/11/30 05:02:31;;;;;;;0.80;0.80;;;-4.30;99.90;;;;;;5029980;28;20000;-81
2023/11/30 05:04:56;;;;;;;;;;;-4.30;99.90;;;;;;5063669;28;20033;-82
2023/11/30 05:07:22;;;;;;;1.00;1.00;;;-4.30;99.90;;;;;;5048164;28;20360;-81
2023/11/30 05:09:48;;;;;;;;;;;-2.60;99.90;;;;;;5044759;28;20114;-79
2023/11/30 05:12:13;;;;;;;1.00;1.00;;;-4.20;99.90;;;;;;5036564;28;19920;-81
2023/11/30 05:14:39;;;;;;;;;;;-4.20;99.90;;;;;;5043466;28;20064;-82
2023/11/30 05:17:05;;;;;;;1.00;1.00;;;-4.20;99.90;;;;;;5039801;28;19928;-79
2023/11/30 05:19:30;;;;;;;;;;;-4.20;99.90;;;;;;5025506;28;20501;-82
2023/11/30 05:21:56;;;;;;;1.00;1.00;;;-4.30;99.90;;;;;;5020940;28;19975;-82
2023/11/30 05:24:22;;;;;;;;;;;-4.40;99.90;;;;;;5044568;28;20060;-82
2023/11/30 05:26:48;;;;;;;0.90;0.90;;;-4.40;99.90;;;;;;5049760;28;19921;-81
2023/11/30 05:29:14;;;;;;;0.90;0.90;;;-4.50;99.90;;;;;;5049203;28;20486;-81
2023/11/30 05:31:40;;;;;;;;;;;-4.60;99.90;;;;;;5044113;28;20127;-81
2023/11/30 05:34:05;;;;;;;0.80;0.80;;;-4.60;99.90;;;;;;5027283;28;19923;-81
2023/11/30 05:36:31;;;;;;;;;;;-4.60;99.90;;;;;;5051828;28;20462;-81
2023/11/30 05:38:58;;;;;;;0.90;0.90;;;-4.60;99.90;;;;;;5044540;28;19995;-80
2023/11/30 05:41:24;;;;;;;0.82;0.82;;;-4.70;99.90;;;;;;5016373;28;20053;-81
2023/11/30 05:43:50;;;;;;;;;;;-4.70;99.90;;;;;;5045786;28;20109;-83
2023/11/30 05:46:16;;;;;;;0.85;0.85;;;-4.70;99.90;;;;;;5042416;28;19924;-82
2023/11/30 05:48:42;;;;;;;0.82;0.82;;;-4.70;99.90;;;;;;5033046;28;20090;-84
2023/11/30 05:51:08;;;;;;;;;;;-4.80;99.90;;;;;;5050588;28;20049;-82
2023/11/30 05:53:33;;;;;;;0.85;0.85;;;-4.80;99.90;;;;;;5043308;28;19920;-82
2023/11/30 05:55:59;;;;;;;;;;;-4.10;99.90;;;;;;5051053;28;20071;-79
2023/11/30 05:58:28;;;;;;;0.90;0.90;;;-4.70;99.90;;;;;;5039524;28;19917;-82
2023/11/30 06:00:53;;;;;;;;;;;-3.60;99.90;;;;;;5021200;28;20528;-82
2023/11/30 06:03:19;;;;;;;0.98;0.98;;;-3.20;99.90;;;;;;5022504;28;19920;-80
2023/11/30 06:05:45;;;;;;;;;;;-4.30;99.90;;;;;;5040485;28;20043;-79
2023/11/30 06:08:10;;;;;;;0.80;0.80;;;-4.30;99.90;;;;;;5039047;28;19925;-82
2023/11/30 06:10:36;;;;;;;;;;;-4.20;99.90;;;;;;5046938;28;20041;-80
2023/11/30 06:13:02;;;;;;;1.00;1.00;;;-4.20;99.90;;;;;;5041667;28;20329;-80
2023/11/30 06:15:28;;;;;;;;;;;-4.30;99.90;;;;;;5025792;28;20478;-79
2023/11/30 06:17:54;;;;;;;0.93;0.93;;;-4.30;99.90;;;;;;5042185;28;19921;-82
2023/11/30 06:20:19;;;;;;;;;;;-4.40;99.90;;;;;;5021279;28;20060;-81
2023/11/30 06:22:49;;;;;;;0.90;0.90;;;-4.40;99.90;;;;;;5042232;28;20292;-82
2023/11/30 06:25:15;;;;;;;0.90;0.90;;;-4.40;99.90;;;;;;5025633;28;20088;-83
2023/11/30 06:27:41;;;;;;;;;;;-4.50;99.90;;;;;;5045913;28;20096;-81
2023/11/30 06:30:07;;;;;;;0.90;0.90;;;-4.50;99.90;;;;;;5048443;28;20369;-81
2023/11/30 06:32:33;;;;;;;0.68;0.68;;;-4.50;99.90;;;;;;5044522;28;20049;-81
2023/11/30 06:34:58;;;;;;;;;;;-4.60;99.90;;;;;;5044675;28;20052;-82
2023/11/30 06:37:24;;;;;;;0.90;0.90;;;-4.60;99.90;;;;;;5021629;28;20453;-81
2023/11/30 06:39:50;;;;;;;;;;;-4.60;99.90;;;;;;5037301;28;20041;-82
2023/11/30 06:42:15;;;;;;;0.82;0.82;;;-4.90;99.90;;;;;;5033311;28;19934;-81
2023/11/30 06:44:44;;;;;;;;;;;-4.70;99.90;;;;;;5026687;28;20139;-81
2023/11/30 06:47:11;;;;;;;0.90;0.90;;;-4.60;99.90;;;;;;5008967;28;19948;-82
2023/11/30 06:49:37;;;;;;;0.98;0.98;;;-4.60;99.90;;;;;;5032363;28;20041;-81
2023/11/30 06:52:02;;;;;;;;;;;-4.60;99.90;;;;;;5013654;28;20047;-80
2023/11/30 06:54:28;;;;;;;1.05;1.00;;;-4.60;99.90;;;;;;5038566;28;19924;-81
2023/11/30 06:56:54;;;;;;;;;;;-4.60;99.90;;;;;;5025675;28;20049;-82
2023/11/30 06:59:19;;;;;;;0.80;0.80;;;-4.60;99.90;;;;;;5037745;28;19967;-83
2023/11/30 07:01:46;;;;;;;;;;;-4.50;99.90;;;;;;5032367;28;20049;-81
2023/11/30 07:04:12;;;;;;;0.90;0.90;;;-4.40;99.90;;;;;;5038066;28;20369;-80
2023/11/30 07:06:38;;;;;;;;;;;-4.30;99.90;;;;;;5023634;28;20045;-83
2023/11/30 07:09:06;;;;;;;0.90;0.90;;;-4.50;99.90;;;;;;5011248;28;19927;-83
2023/11/30 07:11:32;;;;;;;0.80;0.80;;;-4.50;99.90;;;;;;5020586;28;20049;-82
2023/11/30 07:13:59;;;;;;;0.90;0.90;;;-4.40;99.90;;;;;;5023863;28;20482;-81
2023/11/30 07:16:25;;;;;;;0.85;0.85;;;-4.40;99.90;;;;;;5016795;28;20134;-81
2023/11/30 07:18:51;;;;;;;;;;;-4.40;99.90;;;;;;5013484;28;20049;-81
2023/11/30 07:21:17;;;;;;;0.90;0.90;;;-4.40;99.90;;;;;;5036095;28;19924;-82
2023/11/30 07:23:43;;;;;;;1.00;1.00;;;-4.30;99.90;;;;;;5011339;28;20100;-80
2023/11/30 07:26:09;;;;;;;;;;;-4.30;99.90;;;;;;5039673;28;20045;-81
2023/11/30 07:28:35;;;;;;;0.98;0.98;;;-4.30;99.90;;;;;;5045228;28;19924;-81
2023/11/30 07:31:01;;;;;;;;;;;-4.30;99.90;;;;;;5045679;28;20383;-81
2023/11/30 07:33:26;;;;;;;0.85;0.85;;;-2.80;99.90;;;;;;5022987;28;19920;-80
2023/11/30 07:35:52;;;;;;;;;;;-4.30;99.90;;;;;;5040609;28;20049;-82
2023/11/30 07:38:20;;;;;;;0.93;0.93;;;-4.30;99.90;;;;;;5045897;28;19925;-82
2023/11/30 07:40:46;;;;;;;;;;;-4.20;99.90;;;;;;5040257;28;20384;-81
2023/11/30 07:43:12;;;;;;;0.90;0.90;;;-4.20;99.90;;;;;;5025561;28;20325;-80
2023/11/30 07:45:38;;;;;;;;;;;-3.00;99.90;;;;;;5007559;28;20045;-80
2023/11/30 07:48:04;;;;;;;0.80;0.80;;;-4.20;99.90;;;;;;5025693;28;19954;-80
2023/11/30 07:50:30;;;;;;;;;;;-4.00;99.90;;;;;;5042519;28;20040;-81
2023/11/30 07:52:56;;;;;;;0.80;0.80;;;-4.10;99.90;;;;;;5009813;28;19920;-81
2023/11/30 07:55:22;;;;;;;0.80;0.80;;;-4.00;99.90;;;;;;5018851;28;20045;-79
2023/11/30 07:57:49;;;;;;;;;;;-3.80;99.90;;;;;;5042692;28;20295;-82
2023/11/30 08:00:15;;;;;;;0.80;0.80;;;-3.90;99.90;;;;;;5042111;28;19921;-82
2023/11/30 08:02:42;;;;;;;0.80;0.80;;;-3.90;99.90;;;;;;5026490;28;20072;-80
2023/11/30 08:05:07;;;;;;;1.00;1.00;;;-3.80;99.90;;;;;;5026013;28;20040;-81
2023/11/30 08:07:33;;;;;;;;;;;-3.80;99.90;;;;;;5042240;28;20509;-81
2023/11/30 08:09:59;;;;;;;0.90;0.90;;;-3.80;99.90;;;;;;5017585;28;19960;-82
2023/11/30 08:12:25;;;;;;;;;;;-3.90;99.90;;;;;;5011215;28;20037;-82
2023/11/30 08:14:50;;;;;;;0.85;0.85;;;-4.00;99.90;;;;;;5044597;28;19921;-81
2023/11/30 08:17:16;;;;;;;;;;;-3.90;99.90;;;;;;5039843;28;20043;-82
2023/11/30 08:19:42;;;;;;;0.85;0.85;;;-3.50;99.90;;;;;;5042736;28;20378;-81
2023/11/30 08:22:07;;;;;;;;;;;-3.90;99.90;;;;;;5028375;28;20103;-80
2023/11/30 08:24:33;;;;;;;0.90;0.90;;;-3.80;99.90;;;;;;5037935;28;19925;-81
2023/11/30 08:27:02;;;;;;;1.08;1.00;;;-3.70;99.90;;;;;;5025408;28;20046;-80
2023/11/30 08:29:28;;;;;;;0.88;0.88;;;-3.70;99.90;;;;;;5048295;28;20076;-80
2023/11/30 08:31:54;;;;;;;1.40;1.30;;;-3.60;99.90;;;;;;5039184;28;20435;-80
2023/11/30 08:34:20;;;;;;;;;;;-3.60;99.90;;;;;;5046883;28;20067;-81
2023/11/30 08:36:47;;;;;;;0.90;0.90;;;-3.50;99.90;;;;;;5036248;28;20440;-80
2023/11/30 08:39:13;;;;;;;0.90;0.90;;;-3.40;99.90;;;;;;5010626;28;20037;-80
2023/11/30 08:41:39;;;;;;;0.85;0.85;;;-3.60;99.90;;;;;;5040502;28;20048;-80
2023/11/30 08:44:05;;;;;;;;;;;-3.30;99.90;;;;;;5038166;28;20041;-80
2023/11/30 08:46:33;;;;;;;1.10;1.10;;;-3.30;99.90;;;;;;5023710;28;19916;-80
2023/11/30 08:48:59;;;;;;;0.90;0.90;;;-3.20;99.90;;;;;;5036222;28;20136;-80
2023/11/30 08:51:25;;;;;;;;;;;-2.60;99.90;;;;;;5041993;28;20588;-80
2023/11/30 08:53:51;;;;;;;0.80;0.80;;;-3.10;99.90;;;;;;5023740;28;19917;-81
2023/11/30 08:56:16;;;;;;;;;;;-2.20;99.90;;;;;;5041490;28;20364;-80
2023/11/30 08:58:43;;;;;;;0.90;0.90;;;-1.60;99.90;;;;;;5041039;28;20323;-82
2023/11/30 09:01:09;;;;;;;0.90;0.90;;;-1.30;99.90;;;;;;5048026;28;20421;-81
2023/11/30 09:03:35;;;;;;;0.80;0.80;;;-2.50;99.90;;;;;;5048396;28;20067;-82
2023/11/30 09:06:01;;;;;;;0.80;0.80;;;-1.70;99.90;;;;;;5049059;28;20033;-81
2023/11/30 09:08:26;;;;;;;;;;;-2.40;99.90;;;;;;5048489;28;20037;-80
2023/11/30 09:10:52;;;;;;;0.90;0.90;;;-2.30;99.90;;;;;;5051500;28;20393;-80
2023/11/30 09:13:18;;;;;;;0.80;0.80;;;-2.10;99.90;;;;;;5032159;28;20049;-81
2023/11/30 09:15:43;;;;;;;0.80;0.80;;;-1.60;99.90;;;;;;5028144;28;20413;-80
2023/11/30 09:18:10;;;;;;;;;;;-2.00;99.90;;;;;;5046671;28;21689;-81
2023/11/30 09:20:36;;;;;;;0.75;0.75;;;-2.00;99.90;;;;;;5025033;28;19928;-81
2023/11/30 09:23:03;;;;;;;;;;;-2.00;99.90;;;;;;5045212;28;20130;-81
2023/11/30 09:25:29;;;;;;;0.70;0.70;;;-2.00;99.90;;;;;;5048414;28;19924;-80
2023/11/30 09:27:55;;;;;;;;;;;-0.30;99.90;;;;;;5028719;28;20044;-81
2023/11/30 09:30:21;;;;;;;0.80;0.80;;;-2.00;99.90;;;;;;5027502;28;20010;-80
2023/11/30 09:32:46;;;;;;;0.80;0.80;;;-2.00;99.90;;;;;;5015988;28;20037;-80
2023/11/30 09:35:12;;;;;;;0.90;0.90;;;-0.80;99.90;;;;;;5026514;28;20528;-81
2023/11/30 09:37:38;;;;;;;0.90;0.90;;;-1.90;99.90;;;;;;5015293;28;20056;-80
2023/11/30 09:40:05;;;;;;;;;;;-1.90;99.90;;;;;;5043884;28;20072;-82
2023/11/30 09:42:32;;;;;;;0.73;0.73;;;-1.80;99.90;;;;;;5033432;28;20370;-80
2023/11/30 09:45:04;;;;;;;0.70;0.70;;;-1.80;99.90;;;;;;5041805;28;20517;-81
2023/11/30 09:47:32;;;;;;;0.85;0.85;;;-1.80;99.90;;;;;;5041853;28;20060;-81
2023/11/30 09:50:00;;;;;;;0.70;0.70;;;-1.70;99.90;;;;;;5040312;28;20036;-87
2023/11/30 09:52:29;;;;;;;0.70;0.70;;;-1.20;99.90;;;;;;5025469;28;20124;-82
2023/11/30 09:54:59;;;;;;;0.70;0.70;;;-1.60;99.90;;;;;;5026576;28;20120;-83
2023/11/30 09:57:25;;;;;;;0.80;0.80;;;-1.50;99.90;;;;;;5042924;28;20120;-84
2023/11/30 09:59:51;;;;;;;0.80;0.80;;;-1.40;99.90;;;;;;5044543;28;20447;-85
2023/11/30 10:02:19;;;;;;;0.80;0.80;;;-1.30;99.90;;;;;;5048101;28;20064;-85
2023/11/30 10:04:45;;;;;;;0.60;0.60;;;-1.40;99.90;;;;;;5051932;28;20041;-83
2023/11/30 10:07:11;;;;;;;0.70;0.70;;;-1.00;99.90;;;;;;5027623;28;20433;-85
2023/11/30 10:09:38;;;;;;;0.80;0.80;;;-0.40;99.90;;;;;;5047044;28;20041;-84
2023/11/30 10:12:04;;;;;;;0.70;0.70;;;-0.80;99.90;;;;;;5024586;28;20061;-86
2023/11/30 10:14:30;;;;;;;0.70;0.70;;;-0.70;99.90;;;;;;5045672;28;20045;-87
2023/11/30 10:16:58;;;;;;;0.80;0.80;;;-0.60;99.90;;;;;;5020478;28;20544;-86
2023/11/30 10:19:24;;;;;;;0.70;0.70;;;0.80;99.90;;;;;;5050380;28;20037;-85
2023/11/30 10:21:50;;;;;;;0.70;0.70;;;0.30;99.90;;;;;;5029535;28;20042;-85
2023/11/30 10:24:16;;;;;;;0.68;0.68;;;0.90;99.90;;;;;;5042516;28;20549;-85
2023/11/30 10:26:45;;;;;;;0.75;0.75;;;-0.10;99.90;;;;;;5044626;28;20045;-85
2023/11/30 10:29:15;;;;;;;0.80;0.80;;;-0.40;99.90;;;;;;5034429;28;20041;-85
2023/11/30 10:31:43;;;;;;;0.80;0.80;;;-0.40;99.90;;;;;;5055490;28;20057;-85
2023/11/30 10:34:13;;;;;;;0.65;0.65;;;-0.10;99.90;;;;;;5044674;28;20057;-86
2023/11/30 10:36:42;;;;;;;0.80;0.80;;;-0.30;99.90;;;;;;5029916;28;20508;-87
2023/11/30 10:39:18;;;;;;;2.55;2.25;;;0.10;99.90;;;;;;5026341;28;20049;-86
2023/11/30 10:41:52;;;;;;;5.55;2.53;;;-0.40;99.90;;;;;;5043299;28;20099;-86
2023/11/30 10:44:31;;;;;;;0.70;0.70;;;-0.40;99.90;;;;;;5027502;28;20033;-83
2023/11/30 10:46:59;;;;;;;0.73;0.73;;;0.20;99.90;;;;;;5039718;28;20044;-86
2023/11/30 10:49:26;;;;;;;0.60;0.60;;;-0.30;99.90;;;;;;5042617;28;20040;-85
2023/11/30 10:51:59;;;;;;;0.70;0.70;;;-0.30;99.90;;;;;;5041835;28;20063;-83
2023/11/30 10:54:28;;;;;;;0.70;0.70;;;-0.30;99.90;;;;;;5043781;28;20052;-84
2023/11/30 10:56:54;;;;;;;0.80;0.80;;;-0.20;99.90;;;;;;5047302;28;20057;-86
2023/11/30 10:59:23;;;;;;;0.70;0.70;;;-0.30;99.90;;;;;;5040844;28;20406;-86
2023/11/30 11:01:49;;;;;;;0.90;0.85;;;0.80;99.90;;;;;;5025037;28;20084;-87
2023/11/30 11:04:15;;;;;;;0.80;0.80;;;-0.30;99.90;;;;;;5013718;28;20037;-84
2023/11/30 11:06:41;;;;;;;;;;;0.60;99.90;;;;;;5046819;28;20044;-84
2023/11/30 11:09:15;;;;;;;1.23;1.23;;;-0.20;99.90;;;;;;5042353;28;19920;-85
2023/11/30 11:11:43;;;;;;;0.63;0.63;;;0.40;99.90;;;;;;5042744;28;20060;-86
2023/11/30 11:14:29;;;;;;;1.38;1.27;;;-0.40;99.90;;;;;;5052599;28;20101;-85
2023/11/30 11:17:07;;;;;;;0.82;0.82;;;-0.40;99.90;;;;;;5047988;28;20084;-85
2023/11/30 11:19:33;;;;;;;1.50;1.40;;;-0.40;99.90;;;;;;5046215;28;20085;-85
2023/11/30 11:21:58;;;;;;;;;;;-0.40;99.90;;;;;;5035833;28;20048;-86
2023/11/30 11:24:25;;;;;;;0.70;0.70;;;-0.50;99.90;;;;;;5043877;28;20337;-87
2023/11/30 11:26:59;;;;;;;0.68;0.68;;;-0.40;99.90;;;;;;5024056;28;20045;-84
2023/11/30 11:29:31;;;;;;;0.70;0.70;;;-0.40;99.90;;;;;;5044704;28;20080;-85
2023/11/30 11:31:58;;;;;;;0.70;0.70;;;-0.40;99.90;;;;;;5037490;28;20048;-84
2023/11/30 11:34:31;;;;;;;0.70;0.70;;;0.70;99.90;;;;;;5045686;28;20063;-86
2023/11/30 11:36:57;;;;;;;1.08;1.08;;;0.10;99.90;;;;;;5021509;28;20051;-86
2023/11/30 11:39:26;;;;;;;0.70;0.70;;;-0.90;99.90;;;;;;5032298;28;20512;-86
2023/11/30 11:41:51;;;;;;;0.65;0.65;;;-0.50;99.90;;;;;;5047200;28;20422;-86
2023/11/30 11:44:17;;;;;;;0.70;0.70;;;-0.50;99.90;;;;;;5012993;28;20124;-86
2023/11/30 11:46:43;;;;;;;1.05;1.05;;;-0.40;99.90;;;;;;5021971;28;20166;-86
2023/11/30 11:49:08;;;;;;;0.70;0.70;;;-0.90;99.90;;;;;;5027692;28;20128;-86
2023/11/30 11:51:44;;;;;;;0.68;0.68;;;-0.30;99.90;;;;;;5040333;28;20049;-86
2023/11/30 11:54:20;;;;;;;0.70;0.70;;;-0.20;99.90;;;;;;5041196;28;20041;-86
2023/11/30 11:56:48;;;;;;;0.73;0.73;;;-0.30;99.90;;;;;;5050426;28;20049;-87
2023/11/30 11:59:26;;;;;;;1.27;1.27;;;-0.80;99.90;;;;;;5037378;28;20391;-86
2023/11/30 12:01:53;;;;;;;0.73;0.73;;;-0.20;99.90;;;;;;5025401;28;20053;-85
2023/11/30 12:04:28;;;;;;;1.55;1.45;;;-0.30;99.90;;;;;;5019594;28;20037;-85
2023/11/30 12:06:54;;;;;;;0.70;0.70;;;-0.30;99.90;;;;;;5038915;28;20037;-85
2023/11/30 12:09:20;;;;;;;1.20;1.15;;;0.30;99.90;;;;;;5023075;28;20060;-85
2023/11/30 12:11:47;;;;;;;0.80;0.80;;;0.00;99.90;;;;;;5005209;28;20045;-87
2023/11/30 12:14:15;;;;;;;3.05;1.55;;;-0.30;99.90;;;;;;5036397;28;20383;-84
2023/11/30 12:16:42;;;;;;;0.60;0.60;;;-0.30;99.90;;;;;;5014255;28;20076;-84
2023/11/30 12:19:08;;;;;;;0.73;0.73;;;1.00;99.90;;;;;;5029568;28;20045;-86
2023/11/30 12:21:38;;;;;;;0.70;0.70;;;-0.50;99.90;;;;;;5036304;28;20402;-86
2023/11/30 12:24:04;;;;;;;0.70;0.70;;;-0.10;99.90;;;;;;5015144;28;20037;-87
2023/11/30 12:26:29;;;;;;;1.33;1.33;;;-0.10;99.90;;;;;;5026585;28;20475;-86
2023/11/30 12:28:57;;;;;;;0.70;0.70;;;0.40;99.90;;;;;;5038291;28;20037;-85
2023/11/30 12:31:24;;;;;;;0.60;0.60;;;1.80;99.90;;;;;;5038674;28;20048;-86
2023/11/30 12:33:49;;;;;;;1.05;1.05;;;-0.30;99.90;;;;;;5024437;28;20167;-86
2023/11/30 12:36:15;;;;;;;1.10;1.10;;;0.10;99.90;;;;;;5037811;28;20127;-84
2023/11/30 12:38:41;;;;;;;0.70;0.70;;;0.70;99.90;;;;;;5051370;28;20041;-85
2023/11/30 12:41:07;;;;;;;0.80;0.80;;;0.10;99.90;;;;;;5040719;28;20057;-86
2023/11/30 12:43:32;;;;;;;;;;;0.30;99.90;;;;;;5038657;28;20033;-85
2023/11/30 12:45:58;;;;;;;0.80;0.80;;;;;;;;;;5049678;28;20397;-85
2023/11/30 12:48:24;;;;;;;;;;;0.10;99.90;;;;;;5025819;28;20037;-85
2023/11/30 12:50:50;;;;;;;0.60;0.60;;;0.10;99.90;;;;;;5051166;28;19916;-83
2023/11/30 12:53:17;;;;;;;;;;;0.50;99.90;;;;;;5014693;28;20116;-84
2023/11/30 12:55:44;;;;;;;0.80;0.80;;;0.10;99.90;;;;;;5028620;28;19924;-85
2023/11/30 12:58:10;;;;;;;0.98;0.98;;;0.10;99.90;;;;;;5027788;28;20033;-85
2023/11/30 13:00:36;;;;;;;1.45;1.35;;;0.00;99.90;;;;;;5038087;28;20044;-84
2023/11/30 13:03:02;;;;;;;0.70;0.70;;;0.00;99.90;;;;;;5039177;28;20044;-84